METAR AND TAF INFORMATION
METAR FOR YMML
ADDS - METARS form results

(2309 UTC 22 May 2018)
Data provider http://aviationweather.gov/adds/metars/
 
METAR text: YMML 222300Z 22006KT 5000 -SHRA -DZ SCT009 BKN013 BKN018 11/11 Q1028 FM2320 25012KT 9999 -SHRA SCT025 BKN035 INTER 2300/0000 5000 BKN010
Conditions at: YMML (MELBOURNE INTL A, AU) observed 2300 UTC 22 May 2018
Temperature: 11.0°C (52°F)
Dewpoint: 11.0°C (52°F) [RH = 100%]
Pressure (altimeter): 30.35 inches Hg (1028.0 mb)
Winds: from the SW (220 degrees) at 7 MPH (6 knots; 3.1 m/s)
Visibility: 3 miles (5 km)
Ceiling: 1300 feet AGL
Clouds: scattered clouds at 900 feet AGL
broken clouds at 1300 feet AGL
broken clouds at 1800 feet AGL
Weather: -SHRA -DZ  (light rain showers, light drizzle)

METAR text: YMML 222230Z 25004KT 7000 -SHRA SCT012 BKN017 11/10 Q1028 FM2210 25012KT 9999 -SHRA SCT025 BKN035 INTER 2230/2300 5000 BKN010
Conditions at: YMML (MELBOURNE INTL A, AU) observed 2230 UTC 22 May 2018
Temperature: 11.0°C (52°F)
Dewpoint: 10.0°C (50°F) [RH = 94%]
Pressure (altimeter): 30.35 inches Hg (1028.0 mb)
Winds: from the WSW (250 degrees) at 5 MPH (4 knots; 2.1 m/s)
Visibility: 4 miles (7 km)
Ceiling: 1700 feet AGL
Clouds: scattered clouds at 1200 feet AGL
broken clouds at 1700 feet AGL
Weather: -SHRA  (light rain showers)

Forecast for: YMML (MELBOURNE INTL A, AU)
Text: TAF AMD YMML 222032Z 2220/2324 25008KT 9999 -SHRA SCT010 BKN025
Forecast period: 2000 to 2300 UTC 22 May 2018
Forecast type: FROM: standard forecast or significant change
Winds: from the WSW (250 degrees) at 9 MPH (8 knots; 4.2 m/s)
Visibility: 6 or more miles (10+ km)
Ceiling: 2500 feet AGL
Clouds: scattered clouds at 1000 feet AGL
broken clouds at 2500 feet AGL
Weather: -SHRA  (light rain showers)
Forecast for: YMML (MELBOURNE INTL A, AU)
Text: TAF AMD YMML 222032Z 2220/2324 25008KT 9999 -SHRA SCT010 BKN025
Forecast period: 2000 to 2300 UTC 22 May 2018
Forecast type: FROM: standard forecast or significant change
Winds: from the WSW (250 degrees) at 9 MPH (8 knots; 4.2 m/s)
Visibility: 6 or more miles (10+ km)
Ceiling: 2500 feet AGL
Clouds: scattered clouds at 1000 feet AGL
broken clouds at 2500 feet AGL
Weather: -SHRA  (light rain showers)
Forecast for: YMML (MELBOURNE INTL A, AU)
Text: TAF AMD YMML 222032Z 2220/2324 25008KT 9999 -SHRA SCT010 BKN025
Forecast period: 2300 UTC 22 May 2018 to 1000 UTC 23 May 2018
Forecast type: FROM: standard forecast or significant change
Winds: from the WSW (250 degrees) at 14 MPH (12 knots; 6.2 m/s)
Visibility: 6 or more miles (10+ km)
Ceiling: 3500 feet AGL
Clouds: scattered clouds at 2500 feet AGL
broken clouds at 3500 feet AGL
Weather: -SHRA  (light rain showers)
Forecast for: YMML (MELBOURNE INTL A, AU)
Text: TAF AMD YMML 222032Z 2220/2324 25008KT 9999 -SHRA SCT010 BKN025
Forecast period: 2300 UTC 22 May 2018 to 1000 UTC 23 May 2018
Forecast type: FROM: standard forecast or significant change
Winds: from the WSW (250 degrees) at 14 MPH (12 knots; 6.2 m/s)
Visibility: 6 or more miles (10+ km)
Ceiling: 3500 feet AGL
Clouds: scattered clouds at 2500 feet AGL
broken clouds at 3500 feet AGL
Weather: -SHRA  (light rain showers)
Forecast for: YMML (MELBOURNE INTL A, AU)
Text: TAF AMD YMML 222032Z 2220/2324 25008KT 9999 -SHRA SCT010 BKN025
Forecast period: 1000 UTC 23 May 2018 to 0000 UTC 24 May 2018
Forecast type: FROM: standard forecast or significant change
Winds: from the WSW (250 degrees) at 12 MPH (10 knots; 5.2 m/s)
Visibility: 6 or more miles (10+ km)
Ceiling: 3500 feet AGL
Clouds: broken clouds at 3500 feet AGL
Weather: no significant weather forecast for this period
Forecast for: YMML (MELBOURNE INTL A, AU)
Text: TAF AMD YMML 222032Z 2220/2324 25008KT 9999 -SHRA SCT010 BKN025
Forecast period: 1000 UTC 23 May 2018 to 0000 UTC 24 May 2018
Forecast type: FROM: standard forecast or significant change
Winds: from the WSW (250 degrees) at 12 MPH (10 knots; 5.2 m/s)
Visibility: 6 or more miles (10+ km)
Ceiling: 3500 feet AGL
Clouds: broken clouds at 3500 feet AGL
Weather: no significant weather forecast for this period
Forecast for: YMML (MELBOURNE INTL A, AU)
Text: TAF AMD YMML 222032Z 2220/2324 25008KT 9999 -SHRA SCT010 BKN025
Forecast period: 2000 to 2300 UTC 22 May 2018
Forecast type: TEMPORARY: The following changes expected for less than half the time period
Visibility: 3 miles (5 km)
Ceiling: 1000 feet AGL
Clouds: broken clouds at 1000 feet AGL
Weather: SHRA  (rain showers)
Forecast for: YMML (MELBOURNE INTL A, AU)
Text: TAF AMD YMML 222032Z 2220/2324 25008KT 9999 -SHRA SCT010 BKN025
Forecast period: 2000 to 2300 UTC 22 May 2018
Forecast type: TEMPORARY: The following changes expected for less than half the time period
Visibility: 3 miles (5 km)
Ceiling: 1000 feet AGL
Clouds: broken clouds at 1000 feet AGL
Weather: SHRA  (rain showers)

 AIRPORT MAP

 RUNWAY INFORMATION
Runway 09 Runway length 7500 ft Runway width 148 ft
Runway elevation 395 ft Runway displaced threshold 0 ft Runway heading 94
Runway 27 Runway length 7500 ft Runway width 148 ft
Runway elevation 407 ft Runway displaced threshold 0 ft Runway heading 274
Runway 16 Runway length 11998 ft Runway width 197 ft
Runway elevation 432 ft Runway displaced threshold 0 ft Runway heading 171
Runway 34 Runway length 11998 ft Runway width 197 ft
Runway elevation 330 ft Runway displaced threshold 0 ft Runway heading 351

 AIRPORT FREQUENCIES
Type APP Name APP Frequency 132 MHZ
Type ATIS Name ATIS Frequency 114.1 MHZ
Type CLD Name CLNC DEL Frequency 127.2 MHZ
Type DEP Name DEP Frequency 118.9 MHZ
Type GND Name GND Frequency 121.7 MHZ
Type TWR Name TWR Frequency 120.5 MHZ

 AIRPORT NEAR NAVIGATION AIDS
Type NDB Name Bolinda Frequency 362 KHZ
Type NDB Name Epping Frequency 377 KHZ
Type VOR-DME Name Melbourne Frequency 114100 KHZ
Type NDB Name Rockdale Frequency 338 KHZ



Powered by Virtual Airlines Manager [v2.6.2]